sensor_id;sensor_type;location;lat;lon;timestamp;P1;durP1;ratioP1;P2;durP2;ratioP2
19889;SDS011;10107;51.198;6.824;2023-07-31T00:01:56;9.95;;;3.80;;
19889;SDS011;10107;51.198;6.824;2023-07-31T00:05:57;6.20;;;3.50;;
19889;SDS011;10107;51.198;6.824;2023-07-31T00:09:59;10.05;;;3.75;;
19889;SDS011;10107;51.198;6.824;2023-07-31T00:14:00;7.75;;;3.72;;
19889;SDS011;10107;51.198;6.824;2023-07-31T00:18:03;9.38;;;4.10;;
19889;SDS011;10107;51.198;6.824;2023-07-31T00:22:05;9.67;;;4.27;;
19889;SDS011;10107;51.198;6.824;2023-07-31T00:26:07;7.20;;;3.78;;
19889;SDS011;10107;51.198;6.824;2023-07-31T00:30:09;6.95;;;3.38;;
19889;SDS011;10107;51.198;6.824;2023-07-31T00:34:12;7.95;;;3.47;;
19889;SDS011;10107;51.198;6.824;2023-07-31T00:38:14;6.03;;;2.70;;
19889;SDS011;10107;51.198;6.824;2023-07-31T00:42:16;7.03;;;3.83;;
19889;SDS011;10107;51.198;6.824;2023-07-31T00:46:17;9.23;;;3.45;;
19889;SDS011;10107;51.198;6.824;2023-07-31T00:50:20;10.05;;;3.40;;
19889;SDS011;10107;51.198;6.824;2023-07-31T00:54:23;8.35;;;3.90;;
19889;SDS011;10107;51.198;6.824;2023-07-31T00:58:25;8.80;;;3.75;;
19889;SDS011;10107;51.198;6.824;2023-07-31T01:02:27;6.80;;;3.55;;
19889;SDS011;10107;51.198;6.824;2023-07-31T01:06:32;7.07;;;3.30;;
19889;SDS011;10107;51.198;6.824;2023-07-31T01:10:40;6.97;;;3.38;;
19889;SDS011;10107;51.198;6.824;2023-07-31T01:14:51;9.35;;;3.72;;
19889;SDS011;10107;51.198;6.824;2023-07-31T01:18:53;11.77;;;4.03;;
19889;SDS011;10107;51.198;6.824;2023-07-31T01:23:13;10.00;;;3.75;;
19889;SDS011;10107;51.198;6.824;2023-07-31T01:27:31;9.23;;;3.70;;
19889;SDS011;10107;51.198;6.824;2023-07-31T01:31:41;8.98;;;3.50;;
19889;SDS011;10107;51.198;6.824;2023-07-31T01:35:45;10.50;;;4.17;;
19889;SDS011;10107;51.198;6.824;2023-07-31T01:39:47;7.20;;;3.47;;
19889;SDS011;10107;51.198;6.824;2023-07-31T01:43:50;11.20;;;3.83;;
19889;SDS011;10107;51.198;6.824;2023-07-31T01:47:52;5.77;;;2.47;;
19889;SDS011;10107;51.198;6.824;2023-07-31T01:51:54;11.38;;;3.70;;
19889;SDS011;10107;51.198;6.824;2023-07-31T01:55:56;8.45;;;3.63;;
19889;SDS011;10107;51.198;6.824;2023-07-31T01:59:59;10.52;;;4.07;;
19889;SDS011;10107;51.198;6.824;2023-07-31T02:04:01;4.20;;;2.37;;
19889;SDS011;10107;51.198;6.824;2023-07-31T02:08:03;7.75;;;3.42;;
19889;SDS011;10107;51.198;6.824;2023-07-31T02:12:04;10.80;;;3.92;;
19889;SDS011;10107;51.198;6.824;2023-07-31T02:16:09;9.73;;;3.80;;
19889;SDS011;10107;51.198;6.824;2023-07-31T02:20:11;6.20;;;3.30;;
19889;SDS011;10107;51.198;6.824;2023-07-31T02:24:13;7.95;;;3.65;;
19889;SDS011;10107;51.198;6.824;2023-07-31T02:28:15;9.48;;;3.60;;
19889;SDS011;10107;51.198;6.824;2023-07-31T02:32:18;7.97;;;3.42;;
19889;SDS011;10107;51.198;6.824;2023-07-31T02:36:20;8.17;;;3.53;;
19889;SDS011;10107;51.198;6.824;2023-07-31T02:40:21;7.53;;;3.45;;
19889;SDS011;10107;51.198;6.824;2023-07-31T02:44:23;7.40;;;3.60;;
19889;SDS011;10107;51.198;6.824;2023-07-31T02:48:26;7.30;;;3.38;;
19889;SDS011;10107;51.198;6.824;2023-07-31T02:52:28;7.83;;;4.10;;
19889;SDS011;10107;51.198;6.824;2023-07-31T02:56:29;7.05;;;3.40;;
19889;SDS011;10107;51.198;6.824;2023-07-31T03:00:31;11.98;;;3.63;;
19889;SDS011;10107;51.198;6.824;2023-07-31T03:04:34;6.40;;;3.53;;
19889;SDS011;10107;51.198;6.824;2023-07-31T03:08:35;7.87;;;3.30;;
19889;SDS011;10107;51.198;6.824;2023-07-31T03:12:37;7.13;;;3.75;;
19889;SDS011;10107;51.198;6.824;2023-07-31T03:16:39;7.18;;;3.22;;
19889;SDS011;10107;51.198;6.824;2023-07-31T03:20:43;6.07;;;3.25;;
19889;SDS011;10107;51.198;6.824;2023-07-31T03:24:45;7.78;;;3.70;;
19889;SDS011;10107;51.198;6.824;2023-07-31T03:28:46;7.72;;;3.63;;
19889;SDS011;10107;51.198;6.824;2023-07-31T03:32:49;5.60;;;3.30;;
19889;SDS011;10107;51.198;6.824;2023-07-31T03:36:52;6.78;;;3.50;;
19889;SDS011;10107;51.198;6.824;2023-07-31T03:40:54;9.17;;;3.50;;
19889;SDS011;10107;51.198;6.824;2023-07-31T03:44:56;10.88;;;3.90;;
19889;SDS011;10107;51.198;6.824;2023-07-31T03:48:57;7.85;;;4.15;;
19889;SDS011;10107;51.198;6.824;2023-07-31T03:53:00;12.52;;;4.60;;
19889;SDS011;10107;51.198;6.824;2023-07-31T03:57:02;6.60;;;3.77;;
19889;SDS011;10107;51.198;6.824;2023-07-31T04:01:04;7.68;;;4.00;;
19889;SDS011;10107;51.198;6.824;2023-07-31T04:05:06;8.80;;;3.97;;
19889;SDS011;10107;51.198;6.824;2023-07-31T04:09:09;6.90;;;3.72;;
19889;SDS011;10107;51.198;6.824;2023-07-31T04:13:10;7.87;;;4.07;;
19889;SDS011;10107;51.198;6.824;2023-07-31T04:17:12;6.88;;;3.92;;
19889;SDS011;10107;51.198;6.824;2023-07-31T04:21:13;10.13;;;4.00;;
19889;SDS011;10107;51.198;6.824;2023-07-31T04:25:16;7.28;;;3.70;;
19889;SDS011;10107;51.198;6.824;2023-07-31T04:29:18;6.53;;;3.70;;
19889;SDS011;10107;51.198;6.824;2023-07-31T04:33:20;8.38;;;4.00;;
19889;SDS011;10107;51.198;6.824;2023-07-31T04:37:22;9.20;;;4.50;;
19889;SDS011;10107;51.198;6.824;2023-07-31T04:41:25;8.50;;;4.18;;
19889;SDS011;10107;51.198;6.824;2023-07-31T04:45:26;10.10;;;4.30;;
19889;SDS011;10107;51.198;6.824;2023-07-31T04:49:28;8.43;;;4.30;;
19889;SDS011;10107;51.198;6.824;2023-07-31T04:53:29;9.05;;;4.63;;
19889;SDS011;10107;51.198;6.824;2023-07-31T04:57:32;8.57;;;4.47;;
19889;SDS011;10107;51.198;6.824;2023-07-31T05:01:34;8.33;;;4.27;;
19889;SDS011;10107;51.198;6.824;2023-07-31T05:05:36;7.90;;;4.28;;
19889;SDS011;10107;51.198;6.824;2023-07-31T05:09:37;9.38;;;4.95;;
19889;SDS011;10107;51.198;6.824;2023-07-31T05:13:41;7.80;;;4.05;;
19889;SDS011;10107;51.198;6.824;2023-07-31T05:17:43;5.78;;;3.70;;
19889;SDS011;10107;51.198;6.824;2023-07-31T05:21:45;10.30;;;4.30;;
19889;SDS011;10107;51.198;6.824;2023-07-31T05:29:17;6.28;;;3.92;;
19889;SDS011;10107;51.198;6.824;2023-07-31T05:33:19;4.93;;;3.07;;
19889;SDS011;10107;51.198;6.824;2023-07-31T05:37:21;7.45;;;4.25;;
19889;SDS011;10107;51.198;6.824;2023-07-31T05:41:22;6.53;;;4.30;;
19889;SDS011;10107;51.198;6.824;2023-07-31T05:45:26;7.32;;;4.32;;
19889;SDS011;10107;51.198;6.824;2023-07-31T05:49:28;6.70;;;4.28;;
19889;SDS011;10107;51.198;6.824;2023-07-31T05:53:29;6.25;;;3.70;;
19889;SDS011;10107;51.198;6.824;2023-07-31T05:57:32;6.32;;;3.67;;
19889;SDS011;10107;51.198;6.824;2023-07-31T06:01:35;7.20;;;3.83;;
19889;SDS011;10107;51.198;6.824;2023-07-31T06:05:36;7.00;;;4.30;;
19889;SDS011;10107;51.198;6.824;2023-07-31T06:09:38;8.85;;;4.43;;
19889;SDS011;10107;51.198;6.824;2023-07-31T06:13:40;7.22;;;4.05;;
19889;SDS011;10107;51.198;6.824;2023-07-31T06:17:42;7.75;;;4.32;;
19889;SDS011;10107;51.198;6.824;2023-07-31T06:21:44;9.00;;;4.47;;
19889;SDS011;10107;51.198;6.824;2023-07-31T06:25:46;7.70;;;5.03;;
19889;SDS011;10107;51.198;6.824;2023-07-31T06:29:47;6.05;;;3.85;;
19889;SDS011;10107;51.198;6.824;2023-07-31T06:33:53;8.55;;;4.80;;
19889;SDS011;10107;51.198;6.824;2023-07-31T06:37:55;8.80;;;4.60;;
19889;SDS011;10107;51.198;6.824;2023-07-31T06:41:57;8.13;;;4.57;;
19889;SDS011;10107;51.198;6.824;2023-07-31T06:46:00;6.20;;;3.95;;
19889;SDS011;10107;51.198;6.824;2023-07-31T06:50:08;7.70;;;4.22;;
19889;SDS011;10107;51.198;6.824;2023-07-31T06:54:10;6.95;;;3.85;;
19889;SDS011;10107;51.198;6.824;2023-07-31T06:58:11;7.25;;;4.35;;
19889;SDS011;10107;51.198;6.824;2023-07-31T07:02:13;6.32;;;4.25;;
19889;SDS011;10107;51.198;6.824;2023-07-31T07:06:16;5.88;;;4.50;;
19889;SDS011;10107;51.198;6.824;2023-07-31T07:10:18;8.57;;;4.30;;
19889;SDS011;10107;51.198;6.824;2023-07-31T07:14:20;5.78;;;4.13;;
19889;SDS011;10107;51.198;6.824;2023-07-31T07:18:22;8.52;;;3.45;;
19889;SDS011;10107;51.198;6.824;2023-07-31T07:22:26;5.20;;;3.55;;
19889;SDS011;10107;51.198;6.824;2023-07-31T07:26:28;7.95;;;3.80;;
19889;SDS011;10107;51.198;6.824;2023-07-31T07:30:30;6.18;;;3.55;;
19889;SDS011;10107;51.198;6.824;2023-07-31T07:34:32;5.68;;;3.50;;
19889;SDS011;10107;51.198;6.824;2023-07-31T07:38:35;5.93;;;3.70;;
19889;SDS011;10107;51.198;6.824;2023-07-31T07:42:38;6.85;;;3.92;;
19889;SDS011;10107;51.198;6.824;2023-07-31T07:46:40;5.32;;;3.30;;
19889;SDS011;10107;51.198;6.824;2023-07-31T07:50:42;8.63;;;3.63;;
19889;SDS011;10107;51.198;6.824;2023-07-31T07:54:46;5.22;;;3.08;;
19889;SDS011;10107;51.198;6.824;2023-07-31T08:02:50;6.40;;;3.10;;
19889;SDS011;10107;51.198;6.824;2023-07-31T08:06:52;7.50;;;3.70;;
19889;SDS011;10107;51.198;6.824;2023-07-31T08:10:55;5.20;;;3.28;;
19889;SDS011;10107;51.198;6.824;2023-07-31T08:14:57;5.03;;;3.20;;
19889;SDS011;10107;51.198;6.824;2023-07-31T08:19:00;5.22;;;3.33;;
19889;SDS011;10107;51.198;6.824;2023-07-31T08:23:01;7.80;;;3.15;;
19889;SDS011;10107;51.198;6.824;2023-07-31T08:27:05;5.10;;;3.22;;
19889;SDS011;10107;51.198;6.824;2023-07-31T08:31:07;6.00;;;3.20;;
19889;SDS011;10107;51.198;6.824;2023-07-31T08:35:08;5.97;;;3.38;;
19889;SDS011;10107;51.198;6.824;2023-07-31T08:39:10;4.22;;;2.92;;
19889;SDS011;10107;51.198;6.824;2023-07-31T08:43:13;3.88;;;2.80;;
19889;SDS011;10107;51.198;6.824;2023-07-31T08:47:15;3.63;;;2.50;;
19889;SDS011;10107;51.198;6.824;2023-07-31T08:51:17;8.00;;;3.03;;
19889;SDS011;10107;51.198;6.824;2023-07-31T08:55:19;6.47;;;3.05;;
19889;SDS011;10107;51.198;6.824;2023-07-31T08:59:25;6.15;;;3.33;;
19889;SDS011;10107;51.198;6.824;2023-07-31T09:03:30;4.35;;;3.00;;
19889;SDS011;10107;51.198;6.824;2023-07-31T09:07:34;6.43;;;3.00;;
19889;SDS011;10107;51.198;6.824;2023-07-31T09:11:37;4.97;;;3.20;;
19889;SDS011;10107;51.198;6.824;2023-07-31T09:15:40;4.63;;;3.15;;
19889;SDS011;10107;51.198;6.824;2023-07-31T09:19:46;5.60;;;3.15;;
19889;SDS011;10107;51.198;6.824;2023-07-31T09:23:47;6.25;;;2.97;;
19889;SDS011;10107;51.198;6.824;2023-07-31T09:27:50;6.63;;;3.20;;
19889;SDS011;10107;51.198;6.824;2023-07-31T09:31:53;4.88;;;3.13;;
19889;SDS011;10107;51.198;6.824;2023-07-31T09:35:55;5.35;;;3.20;;
19889;SDS011;10107;51.198;6.824;2023-07-31T09:40:00;8.73;;;3.45;;
19889;SDS011;10107;51.198;6.824;2023-07-31T09:44:02;6.65;;;3.25;;
19889;SDS011;10107;51.198;6.824;2023-07-31T09:48:08;6.38;;;3.28;;
19889;SDS011;10107;51.198;6.824;2023-07-31T09:52:11;6.22;;;3.08;;
19889;SDS011;10107;51.198;6.824;2023-07-31T09:56:13;5.38;;;3.05;;
19889;SDS011;10107;51.198;6.824;2023-07-31T10:00:15;4.80;;;3.42;;
19889;SDS011;10107;51.198;6.824;2023-07-31T10:04:19;4.55;;;3.00;;
19889;SDS011;10107;51.198;6.824;2023-07-31T10:08:27;4.47;;;2.90;;
19889;SDS011;10107;51.198;6.824;2023-07-31T10:12:31;3.80;;;2.85;;
19889;SDS011;10107;51.198;6.824;2023-07-31T10:16:34;5.68;;;3.22;;
19889;SDS011;10107;51.198;6.824;2023-07-31T10:20:40;5.82;;;3.47;;
19889;SDS011;10107;51.198;6.824;2023-07-31T10:24:43;7.25;;;3.42;;
19889;SDS011;10107;51.198;6.824;2023-07-31T10:28:45;6.45;;;3.22;;
19889;SDS011;10107;51.198;6.824;2023-07-31T10:32:49;5.43;;;3.13;;
19889;SDS011;10107;51.198;6.824;2023-07-31T10:41:29;4.13;;;2.92;;
19889;SDS011;10107;51.198;6.824;2023-07-31T10:45:33;4.72;;;3.03;;
19889;SDS011;10107;51.198;6.824;2023-07-31T10:49:37;5.72;;;2.72;;
19889;SDS011;10107;51.198;6.824;2023-07-31T10:53:41;7.43;;;3.15;;
19889;SDS011;10107;51.198;6.824;2023-07-31T10:57:44;6.57;;;3.20;;
19889;SDS011;10107;51.198;6.824;2023-07-31T11:01:50;4.18;;;2.58;;
19889;SDS011;10107;51.198;6.824;2023-07-31T11:05:52;5.45;;;2.50;;
19889;SDS011;10107;51.198;6.824;2023-07-31T11:10:02;5.40;;;2.33;;
19889;SDS011;10107;51.198;6.824;2023-07-31T11:14:05;3.22;;;2.17;;
19889;SDS011;10107;51.198;6.824;2023-07-31T11:18:08;4.33;;;2.33;;
19889;SDS011;10107;51.198;6.824;2023-07-31T11:22:11;2.53;;;2.00;;
19889;SDS011;10107;51.198;6.824;2023-07-31T11:26:14;4.07;;;1.80;;
19889;SDS011;10107;51.198;6.824;2023-07-31T11:30:18;5.35;;;1.52;;
19889;SDS011;10107;51.198;6.824;2023-07-31T11:38:22;1.80;;;1.45;;
19889;SDS011;10107;51.198;6.824;2023-07-31T11:42:26;2.30;;;1.38;;
19889;SDS011;10107;51.198;6.824;2023-07-31T11:46:29;2.22;;;1.52;;
19889;SDS011;10107;51.198;6.824;2023-07-31T11:54:34;2.33;;;1.45;;
19889;SDS011;10107;51.198;6.824;2023-07-31T11:58:37;2.10;;;1.40;;
19889;SDS011;10107;51.198;6.824;2023-07-31T12:02:40;2.13;;;1.33;;
19889;SDS011;10107;51.198;6.824;2023-07-31T12:06:43;1.75;;;1.48;;
19889;SDS011;10107;51.198;6.824;2023-07-31T12:10:45;3.58;;;1.65;;
19889;SDS011;10107;51.198;6.824;2023-07-31T12:14:49;2.33;;;1.70;;
19889;SDS011;10107;51.198;6.824;2023-07-31T12:18:51;1.95;;;1.42;;
19889;SDS011;10107;51.198;6.824;2023-07-31T12:22:55;2.63;;;2.03;;
19889;SDS011;10107;51.198;6.824;2023-07-31T12:26:58;2.53;;;1.70;;
19889;SDS011;10107;51.198;6.824;2023-07-31T12:31:01;3.78;;;1.90;;
19889;SDS011;10107;51.198;6.824;2023-07-31T12:35:06;2.33;;;1.75;;
19889;SDS011;10107;51.198;6.824;2023-07-31T12:39:08;2.58;;;1.83;;
19889;SDS011;10107;51.198;6.824;2023-07-31T12:43:10;4.85;;;2.28;;
19889;SDS011;10107;51.198;6.824;2023-07-31T12:47:13;3.60;;;2.13;;
19889;SDS011;10107;51.198;6.824;2023-07-31T12:51:15;2.05;;;1.58;;
19889;SDS011;10107;51.198;6.824;2023-07-31T12:55:17;2.92;;;2.05;;
19889;SDS011;10107;51.198;6.824;2023-07-31T12:59:18;2.97;;;2.03;;
19889;SDS011;10107;51.198;6.824;2023-07-31T13:03:22;4.75;;;2.15;;
19889;SDS011;10107;51.198;6.824;2023-07-31T13:07:23;3.55;;;2.47;;
19889;SDS011;10107;51.198;6.824;2023-07-31T13:11:25;4.40;;;2.30;;
19889;SDS011;10107;51.198;6.824;2023-07-31T13:15:27;3.00;;;2.25;;
19889;SDS011;10107;51.198;6.824;2023-07-31T13:19:30;3.38;;;2.38;;
19889;SDS011;10107;51.198;6.824;2023-07-31T13:23:32;2.30;;;1.95;;
19889;SDS011;10107;51.198;6.824;2023-07-31T13:27:34;3.70;;;2.60;;
19889;SDS011;10107;51.198;6.824;2023-07-31T13:31:36;4.97;;;2.78;;
19889;SDS011;10107;51.198;6.824;2023-07-31T13:35:39;4.30;;;2.60;;
19889;SDS011;10107;51.198;6.824;2023-07-31T13:39:41;4.40;;;2.80;;
19889;SDS011;10107;51.198;6.824;2023-07-31T13:47:46;3.17;;;2.30;;
19889;SDS011;10107;51.198;6.824;2023-07-31T13:51:49;4.03;;;2.55;;
19889;SDS011;10107;51.198;6.824;2023-07-31T13:55:51;3.58;;;2.45;;
19889;SDS011;10107;51.198;6.824;2023-07-31T13:59:52;4.75;;;2.50;;
19889;SDS011;10107;51.198;6.824;2023-07-31T14:03:54;3.35;;;2.35;;
19889;SDS011;10107;51.198;6.824;2023-07-31T14:07:57;4.30;;;2.42;;
19889;SDS011;10107;51.198;6.824;2023-07-31T14:11:59;3.03;;;2.65;;
19889;SDS011;10107;51.198;6.824;2023-07-31T14:16:01;3.72;;;2.40;;
19889;SDS011;10107;51.198;6.824;2023-07-31T14:20:02;4.70;;;3.00;;
19889;SDS011;10107;51.198;6.824;2023-07-31T14:24:06;3.13;;;2.33;;
19889;SDS011;10107;51.198;6.824;2023-07-31T14:28:08;3.57;;;2.60;;
19889;SDS011;10107;51.198;6.824;2023-07-31T14:32:10;3.80;;;2.67;;
19889;SDS011;10107;51.198;6.824;2023-07-31T14:36:11;3.92;;;2.63;;
19889;SDS011;10107;51.198;6.824;2023-07-31T14:40:14;3.30;;;2.70;;
19889;SDS011;10107;51.198;6.824;2023-07-31T14:44:16;5.07;;;2.70;;
19889;SDS011;10107;51.198;6.824;2023-07-31T14:48:18;4.20;;;2.70;;
19889;SDS011;10107;51.198;6.824;2023-07-31T14:52:20;4.95;;;3.05;;
19889;SDS011;10107;51.198;6.824;2023-07-31T14:56:23;4.25;;;3.20;;
19889;SDS011;10107;51.198;6.824;2023-07-31T15:00:27;4.72;;;3.20;;
19889;SDS011;10107;51.198;6.824;2023-07-31T15:04:29;5.15;;;3.45;;
19889;SDS011;10107;51.198;6.824;2023-07-31T15:08:31;4.88;;;3.25;;
19889;SDS011;10107;51.198;6.824;2023-07-31T15:12:34;4.85;;;3.33;;
19889;SDS011;10107;51.198;6.824;2023-07-31T15:16:37;4.63;;;3.42;;
19889;SDS011;10107;51.198;6.824;2023-07-31T15:20:39;4.72;;;3.47;;
19889;SDS011;10107;51.198;6.824;2023-07-31T15:24:41;4.53;;;3.30;;
19889;SDS011;10107;51.198;6.824;2023-07-31T15:28:46;6.85;;;3.60;;
19889;SDS011;10107;51.198;6.824;2023-07-31T15:32:50;6.53;;;3.65;;
19889;SDS011;10107;51.198;6.824;2023-07-31T15:36:52;4.80;;;3.08;;
19889;SDS011;10107;51.198;6.824;2023-07-31T15:40:53;4.13;;;3.13;;
19889;SDS011;10107;51.198;6.824;2023-07-31T15:44:56;3.97;;;2.90;;
19889;SDS011;10107;51.198;6.824;2023-07-31T15:48:58;4.95;;;3.42;;
19889;SDS011;10107;51.198;6.824;2023-07-31T15:53:00;4.28;;;3.30;;
19889;SDS011;10107;51.198;6.824;2023-07-31T15:57:02;6.63;;;3.30;;
19889;SDS011;10107;51.198;6.824;2023-07-31T16:01:05;5.10;;;2.80;;
19889;SDS011;10107;51.198;6.824;2023-07-31T16:05:06;4.85;;;3.20;;
19889;SDS011;10107;51.198;6.824;2023-07-31T16:09:08;5.93;;;3.30;;
19889;SDS011;10107;51.198;6.824;2023-07-31T16:13:10;3.40;;;2.72;;
19889;SDS011;10107;51.198;6.824;2023-07-31T16:17:13;3.63;;;2.85;;
19889;SDS011;10107;51.198;6.824;2023-07-31T16:21:15;4.05;;;2.97;;
19889;SDS011;10107;51.198;6.824;2023-07-31T16:25:17;4.65;;;2.80;;
19889;SDS011;10107;51.198;6.824;2023-07-31T16:29:19;6.47;;;3.33;;
19889;SDS011;10107;51.198;6.824;2023-07-31T16:33:22;4.40;;;3.03;;
19889;SDS011;10107;51.198;6.824;2023-07-31T16:37:24;3.80;;;2.90;;
19889;SDS011;10107;51.198;6.824;2023-07-31T16:41:26;3.22;;;2.67;;
19889;SDS011;10107;51.198;6.824;2023-07-31T16:45:28;4.00;;;2.58;;
19889;SDS011;10107;51.198;6.824;2023-07-31T16:49:31;3.65;;;2.28;;
19889;SDS011;10107;51.198;6.824;2023-07-31T16:53:33;3.75;;;2.30;;
19889;SDS011;10107;51.198;6.824;2023-07-31T16:57:34;2.95;;;2.22;;
19889;SDS011;10107;51.198;6.824;2023-07-31T17:01:36;4.00;;;2.20;;
19889;SDS011;10107;51.198;6.824;2023-07-31T17:05:39;3.13;;;2.30;;
19889;SDS011;10107;51.198;6.824;2023-07-31T17:09:41;3.58;;;2.42;;
19889;SDS011;10107;51.198;6.824;2023-07-31T17:13:43;2.20;;;1.88;;
19889;SDS011;10107;51.198;6.824;2023-07-31T17:17:45;2.60;;;2.15;;
19889;SDS011;10107;51.198;6.824;2023-07-31T17:21:48;2.78;;;2.20;;
19889;SDS011;10107;51.198;6.824;2023-07-31T17:25:50;3.28;;;2.15;;
19889;SDS011;10107;51.198;6.824;2023-07-31T17:29:52;2.80;;;1.98;;
19889;SDS011;10107;51.198;6.824;2023-07-31T17:33:54;3.67;;;2.30;;
19889;SDS011;10107;51.198;6.824;2023-07-31T17:37:56;3.35;;;2.10;;
19889;SDS011;10107;51.198;6.824;2023-07-31T17:41:58;4.53;;;1.57;;
19889;SDS011;10107;51.198;6.824;2023-07-31T17:46:00;3.92;;;2.25;;
19889;SDS011;10107;51.198;6.824;2023-07-31T17:50:03;2.60;;;1.60;;
19889;SDS011;10107;51.198;6.824;2023-07-31T17:54:06;4.28;;;2.35;;
19889;SDS011;10107;51.198;6.824;2023-07-31T17:58:08;4.60;;;2.08;;
19889;SDS011;10107;51.198;6.824;2023-07-31T18:02:10;3.22;;;2.30;;
19889;SDS011;10107;51.198;6.824;2023-07-31T18:06:12;4.57;;;2.40;;
19889;SDS011;10107;51.198;6.824;2023-07-31T18:10:15;3.28;;;2.08;;
19889;SDS011;10107;51.198;6.824;2023-07-31T18:14:16;4.25;;;2.40;;
19889;SDS011;10107;51.198;6.824;2023-07-31T18:18:21;3.75;;;2.05;;
19889;SDS011;10107;51.198;6.824;2023-07-31T18:22:23;2.40;;;1.70;;
19889;SDS011;10107;51.198;6.824;2023-07-31T18:26:26;2.45;;;1.88;;
19889;SDS011;10107;51.198;6.824;2023-07-31T18:30:27;2.87;;;1.70;;
19889;SDS011;10107;51.198;6.824;2023-07-31T18:34:29;2.40;;;1.75;;
19889;SDS011;10107;51.198;6.824;2023-07-31T18:38:31;2.30;;;1.50;;
19889;SDS011;10107;51.198;6.824;2023-07-31T18:42:34;2.38;;;1.80;;
19889;SDS011;10107;51.198;6.824;2023-07-31T18:46:36;2.13;;;1.50;;
19889;SDS011;10107;51.198;6.824;2023-07-31T18:50:40;1.98;;;1.50;;
19889;SDS011;10107;51.198;6.824;2023-07-31T18:54:42;1.80;;;1.30;;
19889;SDS011;10107;51.198;6.824;2023-07-31T18:58:45;1.73;;;1.40;;
19889;SDS011;10107;51.198;6.824;2023-07-31T19:02:48;2.20;;;1.50;;
19889;SDS011;10107;51.198;6.824;2023-07-31T19:06:49;2.75;;;1.40;;
19889;SDS011;10107;51.198;6.824;2023-07-31T19:10:51;1.60;;;1.25;;
19889;SDS011;10107;51.198;6.824;2023-07-31T19:14:54;2.28;;;1.38;;
19889;SDS011;10107;51.198;6.824;2023-07-31T19:18:56;1.33;;;1.00;;
19889;SDS011;10107;51.198;6.824;2023-07-31T19:22:58;2.80;;;1.45;;
19889;SDS011;10107;51.198;6.824;2023-07-31T19:27:00;3.42;;;1.30;;
19889;SDS011;10107;51.198;6.824;2023-07-31T19:31:03;1.45;;;1.10;;
19889;SDS011;10107;51.198;6.824;2023-07-31T19:35:05;1.50;;;0.87;;
19889;SDS011;10107;51.198;6.824;2023-07-31T19:39:06;1.50;;;1.00;;
19889;SDS011;10107;51.198;6.824;2023-07-31T19:43:10;1.27;;;0.95;;
19889;SDS011;10107;51.198;6.824;2023-07-31T19:47:13;1.27;;;1.08;;
19889;SDS011;10107;51.198;6.824;2023-07-31T19:51:14;2.20;;;0.93;;
19889;SDS011;10107;51.198;6.824;2023-07-31T19:55:16;1.65;;;1.20;;
19889;SDS011;10107;51.198;6.824;2023-07-31T19:59:18;2.17;;;1.30;;
19889;SDS011;10107;51.198;6.824;2023-07-31T20:03:21;2.97;;;1.35;;
19889;SDS011;10107;51.198;6.824;2023-07-31T20:07:23;2.38;;;1.20;;
19889;SDS011;10107;51.198;6.824;2023-07-31T20:11:24;1.40;;;0.98;;
19889;SDS011;10107;51.198;6.824;2023-07-31T20:15:26;1.95;;;0.82;;
19889;SDS011;10107;51.198;6.824;2023-07-31T20:19:29;1.13;;;1.02;;
19889;SDS011;10107;51.198;6.824;2023-07-31T20:23:31;2.30;;;0.87;;
19889;SDS011;10107;51.198;6.824;2023-07-31T20:27:32;1.50;;;0.90;;
19889;SDS011;10107;51.198;6.824;2023-07-31T20:31:34;2.13;;;1.10;;
19889;SDS011;10107;51.198;6.824;2023-07-31T20:35:39;2.28;;;0.80;;
19889;SDS011;10107;51.198;6.824;2023-07-31T20:39:41;0.80;;;0.80;;
19889;SDS011;10107;51.198;6.824;2023-07-31T20:43:42;1.08;;;0.82;;
19889;SDS011;10107;51.198;6.824;2023-07-31T20:47:44;1.30;;;0.80;;
19889;SDS011;10107;51.198;6.824;2023-07-31T20:51:47;0.95;;;0.70;;
19889;SDS011;10107;51.198;6.824;2023-07-31T20:59:51;1.15;;;1.00;;
19889;SDS011;10107;51.198;6.824;2023-07-31T21:03:53;1.45;;;1.10;;
19889;SDS011;10107;51.198;6.824;2023-07-31T21:07:56;2.05;;;1.30;;
19889;SDS011;10107;51.198;6.824;2023-07-31T21:11:57;2.63;;;1.40;;
19889;SDS011;10107;51.198;6.824;2023-07-31T21:15:59;1.55;;;0.93;;
19889;SDS011;10107;51.198;6.824;2023-07-31T21:20:01;1.58;;;0.90;;
19889;SDS011;10107;51.198;6.824;2023-07-31T21:24:04;1.00;;;0.90;;
19889;SDS011;10107;51.198;6.824;2023-07-31T21:28:06;4.20;;;1.10;;
19889;SDS011;10107;51.198;6.824;2023-07-31T21:32:08;0.80;;;0.70;;
19889;SDS011;10107;51.198;6.824;2023-07-31T21:36:10;1.67;;;0.90;;
19889;SDS011;10107;51.198;6.824;2023-07-31T21:40:13;1.60;;;0.93;;
19889;SDS011;10107;51.198;6.824;2023-07-31T21:44:15;1.40;;;0.77;;
19889;SDS011;10107;51.198;6.824;2023-07-31T21:48:17;1.20;;;0.88;;
19889;SDS011;10107;51.198;6.824;2023-07-31T21:52:18;3.20;;;1.00;;
19889;SDS011;10107;51.198;6.824;2023-07-31T21:56:21;1.17;;;0.90;;
19889;SDS011;10107;51.198;6.824;2023-07-31T22:00:23;1.60;;;0.77;;
19889;SDS011;10107;51.198;6.824;2023-07-31T22:04:25;0.85;;;0.65;;
19889;SDS011;10107;51.198;6.824;2023-07-31T22:08:26;0.90;;;0.70;;
19889;SDS011;10107;51.198;6.824;2023-07-31T22:12:29;0.98;;;0.70;;
19889;SDS011;10107;51.198;6.824;2023-07-31T22:16:31;2.30;;;1.10;;
19889;SDS011;10107;51.198;6.824;2023-07-31T22:24:36;2.35;;;0.90;;
19889;SDS011;10107;51.198;6.824;2023-07-31T22:28:39;1.23;;;0.80;;
19889;SDS011;10107;51.198;6.824;2023-07-31T22:32:41;1.07;;;0.80;;
19889;SDS011;10107;51.198;6.824;2023-07-31T22:36:42;0.80;;;0.80;;
19889;SDS011;10107;51.198;6.824;2023-07-31T22:40:44;1.58;;;0.90;;
19889;SDS011;10107;51.198;6.824;2023-07-31T22:44:47;0.88;;;0.80;;
19889;SDS011;10107;51.198;6.824;2023-07-31T22:48:49;0.63;;;0.50;;
19889;SDS011;10107;51.198;6.824;2023-07-31T22:52:52;0.60;;;0.52;;
19889;SDS011;10107;51.198;6.824;2023-07-31T22:56:55;3.13;;;0.73;;
19889;SDS011;10107;51.198;6.824;2023-07-31T23:01:01;0.63;;;0.63;;
19889;SDS011;10107;51.198;6.824;2023-07-31T23:05:04;3.42;;;0.77;;
19889;SDS011;10107;51.198;6.824;2023-07-31T23:09:06;0.80;;;0.60;;
19889;SDS011;10107;51.198;6.824;2023-07-31T23:13:07;1.20;;;0.60;;
19889;SDS011;10107;51.198;6.824;2023-07-31T23:17:10;0.60;;;0.60;;
19889;SDS011;10107;51.198;6.824;2023-07-31T23:21:12;0.40;;;0.40;;
19889;SDS011;10107;51.198;6.824;2023-07-31T23:25:13;0.57;;;0.52;;
19889;SDS011;10107;51.198;6.824;2023-07-31T23:29:15;0.40;;;0.40;;
19889;SDS011;10107;51.198;6.824;2023-07-31T23:33:18;0.50;;;0.50;;
19889;SDS011;10107;51.198;6.824;2023-07-31T23:37:20;0.93;;;0.50;;
19889;SDS011;10107;51.198;6.824;2023-07-31T23:41:21;0.60;;;0.60;;
19889;SDS011;10107;51.198;6.824;2023-07-31T23:45:23;0.55;;;0.55;;
19889;SDS011;10107;51.198;6.824;2023-07-31T23:49:26;0.82;;;0.70;;
19889;SDS011;10107;51.198;6.824;2023-07-31T23:53:28;1.23;;;0.70;;
19889;SDS011;10107;51.198;6.824;2023-07-31T23:57:31;4.15;;;1.05;;
